Latest Coastal Weather Observations for Tewantin

IDQ60701

Issued at 5:52 pm EST Friday 29 July 2016 (issued every 10 minutes, with the page automatically refreshed every 10 minutes)

About coastal observations | Map of coastal stations | Coastal observations for QLD | Marine services | Other Formats
Station Details ID: 040908 Name: TEWANTIN RSL PARK Lat: -26.39 Lon: 153.04 Height: 6.4 m
Data from the previous 72 hours. | See also: Recent months at Tewantin
Date/Time
EST
Temp
°C
Wind Pressure Rain since
9am
mm
Weather Cloud Vis
km
Sea
Height
m
Swell
Dir  Spd
kts
Gust
kts
hPa Trend Height
m
Period
s
Dir
29/05:30pm 18.1 ENE 2 3 1019.9 - 0.0 - - - - - - -
29/05:00pm 19.1 ENE 4 6 1019.8 - 0.0 - - - - - - -
29/04:30pm 19.7 ENE 5 7 1019.8 - 0.0 - - - - - - -
29/04:00pm 20.1 E 5 7 1019.7 - 0.0 - - - - - - -
29/03:30pm 20.4 ESE 6 8 1019.8 - 0.0 - - - - - - -
29/03:00pm 20.6 E 6 8 1019.8 - 0.0 - - - - - - -
29/02:30pm 20.6 ESE 6 10 1019.9 - 0.0 - - - - - - -
29/02:00pm 21.3 ESE 6 9 1020.2 - 0.0 - - - - - - -
29/01:30pm 21.4 ESE 6 12 1020.5 - 0.0 - - - - - - -
29/01:00pm 21.3 ESE 5 8 1020.9 - 0.0 - - - - - - -
29/12:30pm 21.5 SE 5 7 1021.3 - 0.0 - - - - - - -
29/12:00pm 21.5 ESE 6 8 1021.7 - 0.0 - - - - - - -
29/11:30am 20.7 SE 6 9 1022.2 - 0.0 - - - - - - -
29/11:00am 21.3 SE 5 9 1022.8 - 0.0 - - - - - - -
29/10:30am 20.8 SE 5 8 1023.1 - 0.0 - - - - - - -
29/10:00am 20.5 SE 6 9 1023.4 - 0.0 - - - - - - -
29/09:30am 20.4 S 5 8 1023.4 - 0.0 - - - - - - -
29/09:00am 19.0 S 4 5 1023.4 - 0.0 - - - - - - -
29/08:30am 17.0 CALM 0 0 1023.3 - 0.0 - - - - - - -
29/08:00am 13.9 CALM 0 0 1023.1 - 0.0 - - - - - - -
29/07:30am 11.9 CALM 0 0 1023.0 - 0.0 - - - - - - -
29/07:00am 10.9 CALM 0 0 1022.9 - 0.0 - - - - - - -
29/06:30am 10.8 CALM 0 0 1022.7 - 0.0 - - - - - - -
29/06:00am 11.1 CALM 0 0 1022.5 - 0.0 - - - - - - -
29/05:30am 11.1 CALM 0 0 1022.1 - 0.0 - - - - - - -
29/05:00am 11.5 CALM 0 0 1021.9 - 0.0 - - - - - - -
29/04:30am 11.5 CALM 0 0 1021.7 - 0.0 - - - - - - -
29/04:00am 11.9 CALM 0 0 1021.6 - 0.0 - - - - - - -
29/03:30am 12.2 CALM 0 0 1021.6 - 0.0 - - - - - - -
29/03:00am 12.4 CALM 0 0 1021.6 - 0.0 - - - - - - -
29/02:30am 12.2 CALM 0 0 1021.7 - 0.0 - - - - - - -
29/02:00am 12.6 CALM 0 0 1021.7 - 0.0 - - - - - - -
29/01:30am 13.0 CALM 0 0 1021.9 - 0.0 - - - - - - -
29/01:00am 13.3 CALM 0 0 1022.1 - 0.0 - - - - - - -
29/12:30am 13.7 CALM 0 0 1022.2 - 0.0 - - - - - - -
29/12:00am 13.3 SSW 1 3 1022.4 - 0.0 - - - - - - -
 
Date/Time
EST
Temp
°C
Wind Pressure Rain since
9am
mm
Weather Cloud Vis
km
Sea
Height
m
Swell
Dir  Spd
kts
Gust
kts
hPa Trend Height
m
Period
s
Dir
28/11:30pm 13.8 CALM 0 0 1022.6 - 0.0 - - - - - - -
28/11:00pm 14.0 S 1 4 1022.8 - 0.0 - - - - - - -
28/10:30pm 13.7 CALM 0 2 1023.0 - 0.0 - - - - - - -
28/10:00pm 14.2 CALM 0 0 1023.2 - 0.0 - - - - - - -
28/09:30pm 14.1 CALM 0 2 1023.2 - 0.0 - - - - - - -
28/09:00pm 14.2 SSW 2 3 1023.4 - 0.0 - - - - - - -
28/08:30pm 14.5 SW 1 3 1023.5 - 0.0 - - - - - - -
28/08:00pm 14.7 S 3 5 1023.5 - 0.0 - - - - - - -
28/07:30pm 14.7 CALM 0 3 1023.4 - 0.0 - - - - - - -
28/07:00pm 15.2 SSW 3 4 1023.2 - 0.0 - - - - - - -
28/06:30pm 15.7 SW 3 4 1022.8 - 0.0 - - - - - - -
28/06:00pm 16.8 CALM 0 0 1022.6 - 0.0 - - - - - - -
28/05:30pm 17.7 SSE 4 5 1022.2 - 0.0 - - - - - - -
28/05:00pm 18.4 SSE 5 7 1022.0 - 0.0 - - - - - - -
28/04:30pm 19.1 SSE 5 9 1021.8 - 0.0 - - - - - - -
28/04:00pm 19.4 SE 6 9 1021.7 - 0.0 - - - - - - -
28/03:30pm 19.5 SSE 6 9 1021.7 - 0.0 - - - - - - -
28/03:00pm 19.9 SE 7 11 1021.5 - 0.0 - - - - - - -
28/02:30pm 20.6 SE 6 9 1021.5 - 0.0 - - - - - - -
28/02:00pm 20.4 SE 6 9 1021.7 - 0.0 - - - - - - -
28/01:30pm 20.2 ESE 7 10 1021.9 - 0.0 - - - - - - -
28/01:00pm 20.4 SE 6 8 1022.1 - 0.0 - - - - - - -
28/12:30pm 20.6 S 5 9 1022.4 - 0.0 - - - - - - -
28/12:00pm 20.7 S 6 10 1022.8 - 0.0 - - - - - - -
28/11:30am 21.0 SSW 7 11 1023.2 - 0.0 - - - - - - -
28/11:00am 20.5 SSW 6 10 1023.7 - 0.0 - - - - - - -
28/10:30am 19.9 SSW 6 9 1023.9 - 0.0 - - - - - - -
28/10:00am 18.6 SSW 7 12 1024.0 - 0.0 - - - - - - -
28/09:30am 17.7 SSW 7 12 1023.9 - 0.0 - - - - - - -
28/09:00am 16.6 SSW 5 7 1023.8 - 0.0 - - - - - - -
28/08:30am 14.3 CALM 0 0 1023.6 - 0.0 - - - - - - -
28/08:00am 11.7 CALM 0 0 1023.4 - 0.0 - - - - - - -
28/07:30am 9.7 CALM 0 0 1023.0 - 0.0 - - - - - - -
28/07:00am 7.5 CALM 0 0 1022.5 - 0.0 - - - - - - -
28/06:30am 6.9 CALM 0 0 1022.2 - 0.0 - - - - - - -
28/06:00am 7.2 CALM 0 0 1022.1 - 0.0 - - - - - - -
28/05:30am 7.5 CALM 0 0 1021.8 - 0.0 - - - - - - -
28/05:00am 7.9 CALM 0 0 1021.3 - 0.0 - - - - - - -
28/04:30am 8.0 CALM 0 0 1021.2 - 0.0 - - - - - - -
28/04:00am 8.1 CALM 0 0 1021.3 - 0.0 - - - - - - -
28/03:30am 8.2 CALM 0 0 1021.4 - 0.0 - - - - - - -
28/03:00am 8.3 CALM 0 0 1021.6 - 0.0 - - - - - - -
28/02:30am 8.1 CALM 0 0 1021.6 - 0.0 - - - - - - -
28/02:00am 8.6 CALM 0 0 1021.7 - 0.0 - - - - - - -
28/01:30am 8.8 WSW 1 3 1021.9 - 0.0 - - - - - - -
28/01:00am 8.9 CALM 0 0 1021.9 - 0.0 - - - - - - -
28/12:30am 9.8 CALM 0 0 1021.8 - 0.0 - - - - - - -
28/12:00am 10.0 CALM 0 0 1021.6 - 0.0 - - - - - - -
 
Date/Time
EST
Temp
°C
Wind Pressure Rain since
9am
mm
Weather Cloud Vis
km
Sea
Height
m
Swell
Dir  Spd
kts
Gust
kts
hPa Trend Height
m
Period
s
Dir
27/11:30pm 10.0 SW 4 6 1021.6 - 0.0 - - - - - - -
27/11:00pm 10.5 SW 4 5 1021.7 - 0.0 - - - - - - -
27/10:30pm 10.6 CALM 0 0 1021.7 - 0.0 - - - - - - -
27/10:00pm 10.7 CALM 0 0 1021.3 - 0.0 - - - - - - -
27/09:30pm 11.1 SW 2 4 1020.9 - 0.0 - - - - - - -
27/09:00pm 12.6 NNW 1 4 1020.6 - 0.0 - - - - - - -
27/08:30pm 12.7 CALM 0 0 1020.4 - 0.0 - - - - - - -
27/08:00pm 13.2 SE 2 4 1020.1 - 0.0 - - - - - - -
27/07:30pm 13.6 CALM 0 0 1019.7 - 0.0 - - - - - - -
27/07:00pm 14.2 SSW 2 4 1019.4 - 0.0 - - - - - - -
27/06:30pm 14.7 CALM 0 0 1019.2 - 0.0 - - - - - - -
27/06:00pm 15.3 CALM 0 0 1018.4 - 0.0 - - - - - - -
27/05:30pm 16.1 CALM 0 0 1018.0 - 0.0 - - - - - - -
27/05:00pm 17.5 WSW 1 3 1017.6 - 0.0 - - - - - - -
27/04:30pm 18.3 WSW 2 4 1017.5 - 0.0 - - - - - - -
27/04:00pm 18.5 SW 3 4 1017.5 - 0.0 - - - - - - -
27/03:30pm 18.9 WSW 3 5 1017.2 - 0.0 - - - - - - -
27/03:00pm 19.4 WSW 3 6 1017.1 - 0.0 - - - - - - -
27/02:30pm 19.4 WSW 3 7 1017.3 - 0.0 - - - - - - -
27/02:00pm 19.6 WSW 6 13 1017.5 - 0.0 - - - - - - -
27/01:30pm 20.0 WSW 5 8 1017.7 - 0.0 - - - - - - -
27/01:00pm 19.9 W 5 8 1017.9 - 0.0 - - - - - - -
27/12:30pm 20.4 W 5 9 1018.0 - 0.0 - - - - - - -
27/12:00pm 21.0 SW 5 9 1018.3 - 0.0 - - - - - - -
27/11:30am 21.4 WSW 3 7 1018.5 - 0.0 - - - - - - -
27/11:00am 20.6 WSW 5 10 1019.3 - 0.0 - - - - - - -
27/10:30am 20.7 SW 6 10 1019.6 - 0.0 - - - - - - -
27/10:00am 20.6 SW 5 8 1019.4 - 0.0 - - - - - - -
27/09:30am 18.7 NNW 5 7 1019.5 - 0.0 - - - - - - -
27/09:00am 18.9 WNW 3 6 1019.6 - 0.0 - - - - - - -
27/08:30am 17.2 NW 4 5 1019.4 - 0.0 - - - - - - -
27/08:00am 15.0 NW 1 4 1019.3 - 0.0 - - - - - - -
27/07:30am 13.3 NNW 2 3 1019.0 - 0.0 - - - - - - -
27/07:00am 13.1 WNW 3 5 1019.4 - 0.0 - - - - - - -
27/06:30am 12.9 CALM 0 0 1019.0 - 0.0 - - - - - - -
27/06:00am 13.3 WNW 1 4 1019.2 - 0.0 - - - - - - -
27/05:30am 13.6 CALM 0 3 1018.7 - 0.0 - - - - - - -
27/05:00am 13.1 NW 1 3 1018.6 - 0.0 - - - - - - -
27/04:30am 13.3 CALM 0 1 1018.3 - 0.0 - - - - - - -
27/04:00am 13.6 NW 3 5 1017.7 - 0.0 - - - - - - -
27/03:30am 14.2 NNW 3 4 1017.6 - 0.0 - - - - - - -
27/03:00am 14.4 NNW 1 3 1018.0 - 0.0 - - - - - - -
27/02:30am 14.0 NW 2 6 1018.0 - 0.0 - - - - - - -
27/02:00am 14.2 W 4 6 1018.2 - 0.0 - - - - - - -
27/01:30am 14.1 NW 3 4 1017.8 - 0.0 - - - - - - -
27/01:00am 13.7 N 2 4 1018.3 - 0.0 - - - - - - -
27/12:30am 13.7 CALM 0 0 1018.5 - 0.0 - - - - - - -
27/12:00am 14.0 W 2 5 1018.4 - 0.0 - - - - - - -
 
Date/Time
EST
Temp
°C
Wind Pressure Rain since
9am
mm
Weather Cloud Vis
km
Sea
Height
m
Swell
Dir  Spd
kts
Gust
kts
hPa Trend Height
m
Period
s
Dir
26/11:30pm 14.2 NNW 2 4 1018.4 - 0.0 - - - - - - -
26/11:00pm 14.1 NW 1 3 1018.4 - 0.0 - - - - - - -
26/10:30pm 13.7 CALM 0 3 1018.5 - 0.0 - - - - - - -
26/10:00pm 14.1 NW 3 4 1018.5 - 0.0 - - - - - - -
26/09:30pm 14.0 CALM 0 0 1018.3 - 0.0 - - - - - - -
26/09:00pm 14.4 CALM 0 0 1018.1 - 0.0 - - - - - - -
26/08:30pm 14.5 WSW 2 3 1018.4 - 0.0 - - - - - - -
26/08:00pm 14.4 WNW 1 4 1018.3 - 0.0 - - - - - - -
26/07:30pm 14.8 SSW 1 3 1017.9 - 0.0 - - - - - - -
26/07:00pm 15.1 CALM 0 0 1017.7 - 0.0 - - - - - - -
26/06:30pm 15.6 CALM 0 3 1017.3 - 0.0 - - - - - - -
26/06:00pm 16.3 CALM 0 0 1017.0 - 0.0 - - - - - - -

Other Formats:

Comma delimited format used in spreadsheet applications
http://www.bom.gov.au/fwo/IDQ60701/IDQ60701.94570.axf

JavaScript Object Notation format (JSON) in row-major order
http://www.bom.gov.au/fwo/IDQ60701/IDQ60701.94570.json